Sanpo Maru No.5 — JL6343 — position and weather

sailwx.info

Track history (hours):
 
Tides and Currents Weather Stations Pressure Air Temp Water Temp Dewpoint Dewpoint Depression Visibility Wind Speed Wind Dir Waves Ship Positions

Sanpo Maru No.5

Last reported at 2017-May-28 12:45 UTC. Time now 2017-May-29 03:49 UTC.
Position N 34°57' E 139°44'.

Length 71 m; draft 4.5 m.

Type: Ship. MMSI: 431500283.

Date/timePositionNaut miles runAvg speedWind from/ knotsBaromVisibWave heightAir tempDewpointWater temp
2017-May-28 12:45N 34°57' E 139°44'4 9.8
2017-May-28 12:23N 35°01' E 139°44'4 9.7
2017-May-28 12:00N 35°04' E 139°45'5 9.7
2017-May-28 11:30N 35°09' E 139°46'510.1
2017-May-28 11:00N 35°14' E 139°46'5 9.7
2017-May-28 10:30N 35°19' E 139°44'5 9.8
2017-May-28 10:00N 35°23' E 139°43'5 9.7
2017-May-28 09:30N 35°27' E 139°47'5 9.6
2017-May-28 09:00N 35°30' E 139°52'5 9.6
2017-May-28 08:30N 35°30' E 139°58'3 1.2
2017-May-28 05:58N 35°30' E 140°01'4 9.2
2017-May-28 05:30N 35°30' E 139°56'510.4
2017-May-28 05:00N 35°30' E 139°50'510.1
2017-May-28 04:30N 35°27' E 139°45'5 9.7
2017-May-28 04:00N 35°23' E 139°41'2 3.1
2017-May-28 03:28N 35°25' E 139°39'0 0.0
2017-May-28 02:55N 35°25' E 139°39'0 0.0
2017-May-28 02:28N 35°25' E 139°39'0 0.0
2017-May-28 01:58N 35°25' E 139°39'0 0.5
2017-May-28 01:30N 35°24' E 139°39'2 3.7
2017-May-28 01:00N 35°23' E 139°41'0 0.0
2017-May-28 00:30N 35°23' E 139°41'0 0.0
2017-May-28 00:00N 35°23' E 139°41'0 0.0
2017-May-27 23:30N 35°23' E 139°41'0 0.0
2017-May-27 23:00N 35°23' E 139°41'0 0.0
2017-May-27 22:30N 35°23' E 139°41'0 0.0
2017-May-27 22:00N 35°23' E 139°41'0 0.0
2017-May-27 21:30N 35°23' E 139°41'0 0.0
2017-May-27 21:00N 35°23' E 139°41'0 0.0
2017-May-27 20:30N 35°23' E 139°41'0 0.0
2017-May-27 20:00N 35°23' E 139°41'0 0.0
2017-May-27 19:30N 35°23' E 139°41'0 0.0
2017-May-27 19:00N 35°23' E 139°41'0 0.0
2017-May-27 18:30N 35°23' E 139°41'0 0.0
2017-May-27 18:00N 35°23' E 139°41'0 0.0
2017-May-27 17:30N 35°23' E 139°41'0 0.0
2017-May-27 17:00N 35°23' E 139°41'0 0.0
2017-May-27 16:30N 35°23' E 139°41'0 0.0
2017-May-27 16:00N 35°23' E 139°41'0 0.0
2017-May-27 15:30N 35°23' E 139°41'0 0.0
2017-May-27 15:00N 35°23' E 139°41'0 0.0
2017-May-27 14:30N 35°23' E 139°41'0 0.0
2017-May-27 13:30N 35°23' E 139°41'0 0.0
2017-May-27 13:00N 35°23' E 139°41'0 0.0
2017-May-27 12:30N 35°23' E 139°41'0 0.0
2017-May-27 12:00N 35°23' E 139°41'0 0.0
2017-May-27 11:30N 35°23' E 139°41'0 0.1
2017-May-27 11:00N 35°23' E 139°41'0 0.0
2017-May-27 10:30N 35°23' E 139°41'0 0.0
2017-May-27 10:00N 35°23' E 139°41'0 0.1
2017-May-27 09:30N 35°23' E 139°41'0 0.0
2017-May-27 09:00N 35°23' E 139°41'0 0.1
2017-May-27 08:30N 35°23' E 139°41'0 0.0
2017-May-27 08:00N 35°23' E 139°41'0 0.1
2017-May-27 07:27N 35°23' E 139°41'0 0.1
2017-May-27 07:00N 35°23' E 139°41'0 0.0
2017-May-27 06:30N 35°23' E 139°41'0 0.0
2017-May-27 06:00N 35°23' E 139°41'2 4.1
2017-May-27 05:30N 35°24' E 139°42'5 9.6
2017-May-27 05:00N 35°27' E 139°47'5 9.5
2017-May-27 04:30N 35°31' E 139°51'5 9.7
2017-May-27 04:00N 35°35' E 139°51'2 2.8
2017-May-27 03:22N 35°37' E 139°50'0 0.0
2017-May-27 02:55N 35°37' E 139°50'0 0.0
2017-May-27 02:25N 35°37' E 139°50'0 0.0
2017-May-27 01:28N 35°37' E 139°50'1 2.8
2017-May-27 01:00N 35°36' E 139°50'1 2.3
2017-May-27 00:29N 35°35' E 139°51'0 0.0
2017-May-26 23:59N 35°35' E 139°51'0 0.0
2017-May-26 23:26N 35°35' E 139°51'0 0.0
2017-May-26 22:59N 35°35' E 139°51'0 0.0
2017-May-26 22:26N 35°35' E 139°51'0 0.0
2017-May-26 21:56N 35°35' E 139°51'0 0.0
2017-May-26 21:23N 35°35' E 139°51'0 0.0
2017-May-26 20:50N 35°35' E 139°51'0 0.0
2017-May-26 20:26N 35°35' E 139°51'0 0.0
2017-May-26 19:59N 35°35' E 139°51'0 0.1
2017-May-26 19:23N 35°35' E 139°51'0 0.1
2017-May-26 18:59N 35°35' E 139°51'0 0.0
2017-May-26 18:29N 35°35' E 139°51'0 0.0
2017-May-26 17:56N 35°35' E 139°51'0 0.0
2017-May-26 17:20N 35°35' E 139°51'0 0.0
2017-May-26 16:59N 35°35' E 139°51'0 0.0
2017-May-26 16:29N 35°35' E 139°51'0 0.0
2017-May-26 15:59N 35°35' E 139°51'0 0.0
2017-May-26 15:29N 35°35' E 139°51'0 0.0
2017-May-26 14:26N 35°35' E 139°51'0 0.0
2017-May-26 13:29N 35°35' E 139°51'0 0.0
2017-May-26 12:59N 35°35' E 139°51'0 0.0
2017-May-26 12:29N 35°35' E 139°51'0 0.0
2017-May-26 11:59N 35°35' E 139°51'0 0.0
2017-May-26 11:29N 35°35' E 139°51'0 0.0
2017-May-26 10:59N 35°35' E 139°51'0 0.0
2017-May-26 10:29N 35°35' E 139°51'0 0.0
2017-May-26 09:59N 35°35' E 139°51'0 0.0
2017-May-26 09:29N 35°35' E 139°51'0 0.0
2017-May-26 08:59N 35°35' E 139°51'1 1.9
2017-May-26 08:30N 35°35' E 139°52'4 9.2
2017-May-26 08:00N 35°30' E 139°50'5 9.6
2017-May-26 07:30N 35°27' E 139°45'4 8.5
2017-May-26 07:00N 35°27' E 139°40'1 1.5
2017-May-26 06:29N 35°28' E 139°40'0 0.0
2017-May-26 05:59N 35°28' E 139°40'0 0.0
2017-May-26 05:26N 35°28' E 139°40'0 0.0
2017-May-26 04:59N 35°28' E 139°40'0 0.0
2017-May-26 04:29N 35°28' E 139°40'0 0.0
2017-May-26 03:59N 35°28' E 139°40'0 0.0
2017-May-26 03:29N 35°28' E 139°40'0 0.0
2017-May-26 02:59N 35°28' E 139°40'0 0.0
2017-May-26 02:29N 35°28' E 139°40'0 0.0
2017-May-26 01:59N 35°28' E 139°40'0 0.0
2017-May-26 01:29N 35°28' E 139°40'0 0.0
2017-May-26 00:59N 35°28' E 139°40'1 2.9
2017-May-26 00:30N 35°27' E 139°41'1 2.2
2017-May-25 23:58N 35°26' E 139°43'0 0.0
2017-May-25 23:28N 35°26' E 139°43'0 0.0
2017-May-25 22:58N 35°26' E 139°43'0 0.0
2017-May-25 22:25N 35°26' E 139°43'0 0.0
2017-May-25 21:55N 35°26' E 139°43'0 0.0
2017-May-25 21:28N 35°26' E 139°43'0 0.0
2017-May-25 20:55N 35°26' E 139°43'0 0.0
2017-May-25 20:28N 35°26' E 139°43'0 0.0
2017-May-25 19:52N 35°26' E 139°43'0 0.0
2017-May-25 19:28N 35°26' E 139°43'0 0.0
2017-May-25 18:55N 35°26' E 139°43'0 0.0
2017-May-25 18:28N 35°26' E 139°43'0 0.0
2017-May-25 17:55N 35°26' E 139°43'0 0.0
2017-May-25 17:28N 35°26' E 139°43'0 0.0
2017-May-25 17:00N 35°26' E 139°43'0 0.0
2017-May-25 16:27N 35°26' E 139°43'0 0.0
2017-May-25 16:00N 35°26' E 139°43'0 0.0
2017-May-25 15:30N 35°26' E 139°43'0 0.0
2017-May-25 15:00N 35°26' E 139°43'0 0.0
2017-May-25 14:00N 35°26' E 139°43'0 0.0
2017-May-25 13:30N 35°26' E 139°43'0 0.0
2017-May-25 13:00N 35°26' E 139°43'0 0.0
2017-May-25 12:30N 35°26' E 139°43'0 0.0
2017-May-25 12:00N 35°26' E 139°43'0 0.0
2017-May-25 11:30N 35°26' E 139°43'0 0.0
2017-May-25 11:00N 35°26' E 139°43'0 0.0
2017-May-25 10:30N 35°26' E 139°43'0 0.0
2017-May-25 10:00N 35°26' E 139°43'0 0.0
2017-May-25 09:30N 35°26' E 139°43'0 0.0
2017-May-25 08:57N 35°26' E 139°43'0 0.0
2017-May-25 08:27N 35°26' E 139°43'2 5.0
2017-May-25 08:00N 35°24' E 139°43'510.3
2017-May-25 07:30N 35°19' E 139°44'510.9
2017-May-25 07:00N 35°14' E 139°47'510.7
2017-May-25 06:30N 35°09' E 139°46'510.3
2017-May-25 06:00N 35°04' E 139°45'611.0
2017-May-25 05:26N 34°58' E 139°44'  
2017-May-22 08:24N 34°60' E 139°44'410.0
2017-May-22 08:00N 35°04' E 139°45'5 9.6
2017-May-22 07:30N 35°08' E 139°46'5 9.8
2017-May-22 07:00N 35°13' E 139°46'5 9.9
2017-May-22 06:30N 35°18' E 139°44'5 9.5
2017-May-22 06:00N 35°22' E 139°42'5 9.3
2017-May-22 05:30N 35°26' E 139°46'5 9.7
2017-May-22 05:00N 35°29' E 139°50'5 9.4
2017-May-22 04:30N 35°34' E 139°51'3 6.6
2017-May-22 03:59N 35°37' E 139°50'0 0.0
2017-May-22 03:29N 35°37' E 139°50'0 0.0
2017-May-22 02:53N 35°37' E 139°50'0 0.0
2017-May-22 02:29N 35°37' E 139°50'0 0.0
2017-May-22 01:59N 35°37' E 139°50'1 2.6
2017-May-22 01:28N 35°36' E 139°50'1 2.1
2017-May-22 00:58N 35°36' E 139°51'0 0.0
2017-May-22 00:28N 35°36' E 139°51'0 0.0
2017-May-21 23:58N 35°36' E 139°51'0 0.1
2017-May-21 23:19N 35°36' E 139°52'0 0.1
2017-May-21 22:58N 35°36' E 139°52'0 0.0
2017-May-21 22:22N 35°36' E 139°52'0 0.0
2017-May-21 21:58N 35°36' E 139°52'0 0.0
2017-May-21 21:28N 35°36' E 139°52'0 0.0
2017-May-21 20:58N 35°36' E 139°52'0 0.1
2017-May-21 20:28N 35°36' E 139°52'0 0.1
2017-May-21 19:52N 35°36' E 139°51'0 0.1
2017-May-21 19:28N 35°36' E 139°52'0 0.0
2017-May-21 18:52N 35°36' E 139°52'0 0.1
2017-May-21 18:28N 35°36' E 139°51'0 0.0
2017-May-21 17:55N 35°36' E 139°51'0 0.0
2017-May-21 17:28N 35°36' E 139°51'0 0.0
2017-May-21 16:58N 35°36' E 139°51'0 0.0
2017-May-21 16:28N 35°36' E 139°51'0 0.0
2017-May-21 15:58N 35°36' E 139°51'0 0.1
2017-May-21 15:28N 35°36' E 139°52'0 0.0
2017-May-21 14:58N 35°36' E 139°52'0 0.0
2017-May-21 14:25N 35°36' E 139°52'0 0.0
2017-May-21 13:28N 35°36' E 139°52'0 0.0
2017-May-21 12:58N 35°36' E 139°52'0 0.0
2017-May-21 12:28N 35°36' E 139°52'0 0.0
2017-May-21 11:55N 35°36' E 139°52'0 0.0
2017-May-21 11:28N 35°36' E 139°52'0 0.0
2017-May-21 10:58N 35°36' E 139°52'0 0.0
2017-May-21 10:28N 35°36' E 139°52'0 0.0
2017-May-21 09:55N 35°36' E 139°52'0 0.1
2017-May-21 09:25N 35°36' E 139°51'0 0.0
2017-May-21 08:58N 35°36' E 139°51'0 0.0
2017-May-21 08:28N 35°36' E 139°51'0 0.1
2017-May-21 07:58N 35°36' E 139°52'0 0.0
2017-May-21 07:22N 35°36' E 139°52'0 0.1
2017-May-21 06:55N 35°36' E 139°51'0 0.1
2017-May-21 06:25N 35°36' E 139°52'0 0.0
2017-May-21 05:58N 35°36' E 139°52'0 0.0
2017-May-21 05:28N 35°36' E 139°52'0 0.0
2017-May-21 04:58N 35°36' E 139°52'0 0.0
2017-May-21 04:25N 35°36' E 139°52'0 0.0
2017-May-21 03:58N 35°36' E 139°52'0 0.0
2017-May-21 03:28N 35°36' E 139°52'0 0.0
2017-May-21 02:58N 35°36' E 139°52'0 0.0
2017-May-21 02:25N 35°36' E 139°52'0 0.0
2017-May-21 01:58N 35°36' E 139°52'0 0.0
2017-May-21 01:28N 35°36' E 139°52'0 0.1
2017-May-21 00:58N 35°36' E 139°51'0 0.0
2017-May-21 00:28N 35°36' E 139°51'1 3.1
2017-May-20 23:59N 35°34' E 139°52'610.1
2017-May-20 23:24N 35°28' E 139°52'510.1
2017-May-20 22:53N 35°25' E 139°47'410.3
2017-May-20 22:30N 35°21' E 139°45'5 9.3
2017-May-20 22:00N 35°17' E 139°46'6 9.9
2017-May-20 21:26N 35°11' E 139°47'  
Track history (hours):
 
Tides and Currents Weather Stations Pressure Air Temp Water Temp Dewpoint Dewpoint Depression Visibility Wind Speed Wind Dir Waves Ship Positions

Sanpo Maru No.5

Last reported at 2017-May-28 12:45 UTC. Time now 2017-May-29 03:49 UTC.
Position N 34°57' E 139°44'.

Length 71 m; draft 4.5 m.

Type: Ship. MMSI: 431500283.

Date/timePositionNaut miles runAvg speedWind from/ knotsBaromVisibWave heightAir tempDewpointWater temp
2017-May-28 12:45N 34°57' E 139°44'4 9.8
2017-May-28 12:23N 35°01' E 139°44'4 9.7
2017-May-28 12:00N 35°04' E 139°45'5 9.7
2017-May-28 11:30N 35°09' E 139°46'510.1
2017-May-28 11:00N 35°14' E 139°46'5 9.7
2017-May-28 10:30N 35°19' E 139°44'5 9.8
2017-May-28 10:00N 35°23' E 139°43'5 9.7
2017-May-28 09:30N 35°27' E 139°47'5 9.6
2017-May-28 09:00N 35°30' E 139°52'5 9.6
2017-May-28 08:30N 35°30' E 139°58'3 1.2
2017-May-28 05:58N 35°30' E 140°01'4 9.2
2017-May-28 05:30N 35°30' E 139°56'510.4
2017-May-28 05:00N 35°30' E 139°50'510.1
2017-May-28 04:30N 35°27' E 139°45'5 9.7
2017-May-28 04:00N 35°23' E 139°41'2 3.1
2017-May-28 03:28N 35°25' E 139°39'0 0.0
2017-May-28 02:55N 35°25' E 139°39'0 0.0
2017-May-28 02:28N 35°25' E 139°39'0 0.0
2017-May-28 01:58N 35°25' E 139°39'0 0.5
2017-May-28 01:30N 35°24' E 139°39'2 3.7
2017-May-28 01:00N 35°23' E 139°41'0 0.0
2017-May-28 00:30N 35°23' E 139°41'0 0.0
2017-May-28 00:00N 35°23' E 139°41'0 0.0
2017-May-27 23:30N 35°23' E 139°41'0 0.0
2017-May-27 23:00N 35°23' E 139°41'0 0.0
2017-May-27 22:30N 35°23' E 139°41'0 0.0
2017-May-27 22:00N 35°23' E 139°41'0 0.0
2017-May-27 21:30N 35°23' E 139°41'0 0.0
2017-May-27 21:00N 35°23' E 139°41'0 0.0
2017-May-27 20:30N 35°23' E 139°41'0 0.0
2017-May-27 20:00N 35°23' E 139°41'0 0.0
2017-May-27 19:30N 35°23' E 139°41'0 0.0
2017-May-27 19:00N 35°23' E 139°41'0 0.0
2017-May-27 18:30N 35°23' E 139°41'0 0.0
2017-May-27 18:00N 35°23' E 139°41'0 0.0
2017-May-27 17:30N 35°23' E 139°41'0 0.0
2017-May-27 17:00N 35°23' E 139°41'0 0.0
2017-May-27 16:30N 35°23' E 139°41'0 0.0
2017-May-27 16:00N 35°23' E 139°41'0 0.0
2017-May-27 15:30N 35°23' E 139°41'0 0.0
2017-May-27 15:00N 35°23' E 139°41'0 0.0
2017-May-27 14:30N 35°23' E 139°41'0 0.0
2017-May-27 13:30N 35°23' E 139°41'0 0.0
2017-May-27 13:00N 35°23' E 139°41'0 0.0
2017-May-27 12:30N 35°23' E 139°41'0 0.0
2017-May-27 12:00N 35°23' E 139°41'0 0.0
2017-May-27 11:30N 35°23' E 139°41'0 0.1
2017-May-27 11:00N 35°23' E 139°41'0 0.0
2017-May-27 10:30N 35°23' E 139°41'0 0.0
2017-May-27 10:00N 35°23' E 139°41'0 0.1
2017-May-27 09:30N 35°23' E 139°41'0 0.0
2017-May-27 09:00N 35°23' E 139°41'0 0.1
2017-May-27 08:30N 35°23' E 139°41'0 0.0
2017-May-27 08:00N 35°23' E 139°41'0 0.1
2017-May-27 07:27N 35°23' E 139°41'0 0.1
2017-May-27 07:00N 35°23' E 139°41'0 0.0
2017-May-27 06:30N 35°23' E 139°41'0 0.0
2017-May-27 06:00N 35°23' E 139°41'2 4.1
2017-May-27 05:30N 35°24' E 139°42'5 9.6
2017-May-27 05:00N 35°27' E 139°47'5 9.5
2017-May-27 04:30N 35°31' E 139°51'5 9.7
2017-May-27 04:00N 35°35' E 139°51'2 2.8
2017-May-27 03:22N 35°37' E 139°50'0 0.0
2017-May-27 02:55N 35°37' E 139°50'0 0.0
2017-May-27 02:25N 35°37' E 139°50'0 0.0
2017-May-27 01:28N 35°37' E 139°50'1 2.8
2017-May-27 01:00N 35°36' E 139°50'1 2.3
2017-May-27 00:29N 35°35' E 139°51'0 0.0
2017-May-26 23:59N 35°35' E 139°51'0 0.0
2017-May-26 23:26N 35°35' E 139°51'0 0.0
2017-May-26 22:59N 35°35' E 139°51'0 0.0
2017-May-26 22:26N 35°35' E 139°51'0 0.0
2017-May-26 21:56N 35°35' E 139°51'0 0.0
2017-May-26 21:23N 35°35' E 139°51'0 0.0
2017-May-26 20:50N 35°35' E 139°51'0 0.0
2017-May-26 20:26N 35°35' E 139°51'0 0.0
2017-May-26 19:59N 35°35' E 139°51'0 0.1
2017-May-26 19:23N 35°35' E 139°51'0 0.1
2017-May-26 18:59N 35°35' E 139°51'0 0.0
2017-May-26 18:29N 35°35' E 139°51'0 0.0
2017-May-26 17:56N 35°35' E 139°51'0 0.0
2017-May-26 17:20N 35°35' E 139°51'0 0.0
2017-May-26 16:59N 35°35' E 139°51'0 0.0
2017-May-26 16:29N 35°35' E 139°51'0 0.0
2017-May-26 15:59N 35°35' E 139°51'0 0.0
2017-May-26 15:29N 35°35' E 139°51'0 0.0
2017-May-26 14:26N 35°35' E 139°51'0 0.0
2017-May-26 13:29N 35°35' E 139°51'0 0.0
2017-May-26 12:59N 35°35' E 139°51'0 0.0
2017-May-26 12:29N 35°35' E 139°51'0 0.0
2017-May-26 11:59N 35°35' E 139°51'0 0.0
2017-May-26 11:29N 35°35' E 139°51'0 0.0
2017-May-26 10:59N 35°35' E 139°51'0 0.0
2017-May-26 10:29N 35°35' E 139°51'0 0.0
2017-May-26 09:59N 35°35' E 139°51'0 0.0
2017-May-26 09:29N 35°35' E 139°51'0 0.0
2017-May-26 08:59N 35°35' E 139°51'1 1.9
2017-May-26 08:30N 35°35' E 139°52'4 9.2
2017-May-26 08:00N 35°30' E 139°50'5 9.6
2017-May-26 07:30N 35°27' E 139°45'4 8.5
2017-May-26 07:00N 35°27' E 139°40'1 1.5
2017-May-26 06:29N 35°28' E 139°40'0 0.0
2017-May-26 05:59N 35°28' E 139°40'0 0.0
2017-May-26 05:26N 35°28' E 139°40'0 0.0
2017-May-26 04:59N 35°28' E 139°40'0 0.0
2017-May-26 04:29N 35°28' E 139°40'0 0.0
2017-May-26 03:59N 35°28' E 139°40'0 0.0
2017-May-26 03:29N 35°28' E 139°40'0 0.0
2017-May-26 02:59N 35°28' E 139°40'0 0.0
2017-May-26 02:29N 35°28' E 139°40'0 0.0
2017-May-26 01:59N 35°28' E 139°40'0 0.0
2017-May-26 01:29N 35°28' E 139°40'0 0.0
2017-May-26 00:59N 35°28' E 139°40'1 2.9
2017-May-26 00:30N 35°27' E 139°41'1 2.2
2017-May-25 23:58N 35°26' E 139°43'0 0.0
2017-May-25 23:28N 35°26' E 139°43'0 0.0
2017-May-25 22:58N 35°26' E 139°43'0 0.0
2017-May-25 22:25N 35°26' E 139°43'0 0.0
2017-May-25 21:55N 35°26' E 139°43'0 0.0
2017-May-25 21:28N 35°26' E 139°43'0 0.0
2017-May-25 20:55N 35°26' E 139°43'0 0.0
2017-May-25 20:28N 35°26' E 139°43'0 0.0
2017-May-25 19:52N 35°26' E 139°43'0 0.0
2017-May-25 19:28N 35°26' E 139°43'0 0.0
2017-May-25 18:55N 35°26' E 139°43'0 0.0
2017-May-25 18:28N 35°26' E 139°43'0 0.0
2017-May-25 17:55N 35°26' E 139°43'0 0.0
2017-May-25 17:28N 35°26' E 139°43'0 0.0
2017-May-25 17:00N 35°26' E 139°43'0 0.0
2017-May-25 16:27N 35°26' E 139°43'0 0.0
2017-May-25 16:00N 35°26' E 139°43'0 0.0
2017-May-25 15:30N 35°26' E 139°43'0 0.0
2017-May-25 15:00N 35°26' E 139°43'0 0.0
2017-May-25 14:00N 35°26' E 139°43'0 0.0
2017-May-25 13:30N 35°26' E 139°43'0 0.0
2017-May-25 13:00N 35°26' E 139°43'0 0.0
2017-May-25 12:30N 35°26' E 139°43'0 0.0
2017-May-25 12:00N 35°26' E 139°43'0 0.0
2017-May-25 11:30N 35°26' E 139°43'0 0.0
2017-May-25 11:00N 35°26' E 139°43'0 0.0
2017-May-25 10:30N 35°26' E 139°43'0 0.0
2017-May-25 10:00N 35°26' E 139°43'0 0.0
2017-May-25 09:30N 35°26' E 139°43'0 0.0
2017-May-25 08:57N 35°26' E 139°43'0 0.0
2017-May-25 08:27N 35°26' E 139°43'2 5.0
2017-May-25 08:00N 35°24' E 139°43'510.3
2017-May-25 07:30N 35°19' E 139°44'510.9
2017-May-25 07:00N 35°14' E 139°47'510.7
2017-May-25 06:30N 35°09' E 139°46'510.3
2017-May-25 06:00N 35°04' E 139°45'611.0
2017-May-25 05:26N 34°58' E 139°44'  
2017-May-22 08:24N 34°60' E 139°44'410.0
2017-May-22 08:00N 35°04' E 139°45'5 9.6
2017-May-22 07:30N 35°08' E 139°46'5 9.8
2017-May-22 07:00N 35°13' E 139°46'5 9.9
2017-May-22 06:30N 35°18' E 139°44'5 9.5
2017-May-22 06:00N 35°22' E 139°42'5 9.3
2017-May-22 05:30N 35°26' E 139°46'5 9.7
2017-May-22 05:00N 35°29' E 139°50'5 9.4
2017-May-22 04:30N 35°34' E 139°51'3 6.6
2017-May-22 03:59N 35°37' E 139°50'0 0.0
2017-May-22 03:29N 35°37' E 139°50'0 0.0
2017-May-22 02:53N 35°37' E 139°50'0 0.0
2017-May-22 02:29N 35°37' E 139°50'0 0.0
2017-May-22 01:59N 35°37' E 139°50'1 2.6
2017-May-22 01:28N 35°36' E 139°50'1 2.1
2017-May-22 00:58N 35°36' E 139°51'0 0.0
2017-May-22 00:28N 35°36' E 139°51'0 0.0
2017-May-21 23:58N 35°36' E 139°51'0 0.1
2017-May-21 23:19N 35°36' E 139°52'0 0.1
2017-May-21 22:58N 35°36' E 139°52'0 0.0
2017-May-21 22:22N 35°36' E 139°52'0 0.0
2017-May-21 21:58N 35°36' E 139°52'0 0.0
2017-May-21 21:28N 35°36' E 139°52'0 0.0
2017-May-21 20:58N 35°36' E 139°52'0 0.1
2017-May-21 20:28N 35°36' E 139°52'0 0.1
2017-May-21 19:52N 35°36' E 139°51'0 0.1
2017-May-21 19:28N 35°36' E 139°52'0 0.0
2017-May-21 18:52N 35°36' E 139°52'0 0.1
2017-May-21 18:28N 35°36' E 139°51'0 0.0
2017-May-21 17:55N 35°36' E 139°51'0 0.0
2017-May-21 17:28N 35°36' E 139°51'0 0.0
2017-May-21 16:58N 35°36' E 139°51'0 0.0
2017-May-21 16:28N 35°36' E 139°51'0 0.0
2017-May-21 15:58N 35°36' E 139°51'0 0.1
2017-May-21 15:28N 35°36' E 139°52'0 0.0
2017-May-21 14:58N 35°36' E 139°52'0 0.0
2017-May-21 14:25N 35°36' E 139°52'0 0.0
2017-May-21 13:28N 35°36' E 139°52'0 0.0
2017-May-21 12:58N 35°36' E 139°52'0 0.0
2017-May-21 12:28N 35°36' E 139°52'0 0.0
2017-May-21 11:55N 35°36' E 139°52'0 0.0
2017-May-21 11:28N 35°36' E 139°52'0 0.0
2017-May-21 10:58N 35°36' E 139°52'0 0.0
2017-May-21 10:28N 35°36' E 139°52'0 0.0
2017-May-21 09:55N 35°36' E 139°52'0 0.1
2017-May-21 09:25N 35°36' E 139°51'0 0.0
2017-May-21 08:58N 35°36' E 139°51'0 0.0
2017-May-21 08:28N 35°36' E 139°51'0 0.1
2017-May-21 07:58N 35°36' E 139°52'0 0.0
2017-May-21 07:22N 35°36' E 139°52'0 0.1
2017-May-21 06:55N 35°36' E 139°51'0 0.1
2017-May-21 06:25N 35°36' E 139°52'0 0.0
2017-May-21 05:58N 35°36' E 139°52'0 0.0
2017-May-21 05:28N 35°36' E 139°52'0 0.0
2017-May-21 04:58N 35°36' E 139°52'0 0.0
2017-May-21 04:25N 35°36' E 139°52'0 0.0
2017-May-21 03:58N 35°36' E 139°52'0 0.0
2017-May-21 03:28N 35°36' E 139°52'0 0.0
2017-May-21 02:58N 35°36' E 139°52'0 0.0
2017-May-21 02:25N 35°36' E 139°52'0 0.0
2017-May-21 01:58N 35°36' E 139°52'0 0.0
2017-May-21 01:28N 35°36' E 139°52'0 0.1
2017-May-21 00:58N 35°36' E 139°51'0 0.0
2017-May-21 00:28N 35°36' E 139°51'1 3.1
2017-May-20 23:59N 35°34' E 139°52'610.1
2017-May-20 23:24N 35°28' E 139°52'510.1
2017-May-20 22:53N 35°25' E 139°47'410.3
2017-May-20 22:30N 35°21' E 139°45'5 9.3
2017-May-20 22:00N 35°17' E 139°46'6 9.9
2017-May-20 21:26N 35°11' E 139°47'  

Dump ship's entire track history